Time;durP1;ratioP1;P1;durP2;ratioP2;P2;SDS_P1;SDS_P2;PMS_P1;PMS_P2;Temp;Humidity;BMP_temperature;BMP_pressure;BME280_temperature;BME280_humidity;BME280_pressure;Samples;Min_cycle;Max_cycle;Signal;HPM_P1;HPM_P2
2020/12/20 00:03:55;;;;;;;65.28;33.53;;;;;;;-144.15;0.00;65763.66;10358053;28;20083;-72
2020/12/20 00:08:53;;;;;;;46.10;26.63;;;;;;;-144.15;0.00;65763.66;10358239;28;20071;-70
2020/12/20 00:13:51;;;;;;;41.38;20.52;;;;;;;-144.15;0.00;65763.66;10359855;28;20075;-71
2020/12/20 00:18:49;;;;;;;45.67;23.80;;;;;;;-144.15;0.00;65763.66;10356044;28;20071;-71
2020/12/20 00:23:47;;;;;;;48.28;28.38;;;;;;;-144.15;0.00;65763.66;10358811;28;20060;-71
2020/12/20 00:28:44;;;;;;;46.97;25.15;;;;;;;-144.15;0.00;65763.66;10354673;28;20536;-70
2020/12/20 00:33:42;;;;;;;46.15;26.25;;;;;;;-144.15;0.00;65763.66;10353463;28;20071;-71
2020/12/20 00:38:41;;;;;;;47.08;24.98;;;;;;;-144.15;0.00;65763.66;10358605;28;20442;-70
2020/12/20 00:43:38;;;;;;;55.42;30.13;;;;;;;-144.15;0.00;65763.66;10358454;28;20081;-71
2020/12/20 00:48:36;;;;;;;40.88;24.50;;;;;;;-144.15;0.00;65763.66;10357480;28;20067;-71
2020/12/20 00:53:33;;;;;;;60.78;33.92;;;;;;;-144.15;0.00;65763.66;10357907;28;20075;-71
2020/12/20 00:58:33;;;;;;;42.60;23.38;;;;;;;-144.15;0.00;65763.66;10336688;28;20489;-70
2020/12/20 01:03:31;;;;;;;56.55;31.88;;;;;;;-144.15;0.00;65763.66;10357808;28;20040;-70
2020/12/20 01:08:30;;;;;;;52.88;29.58;;;;;;;-144.15;0.00;65763.66;10338306;28;20476;-72
2020/12/20 01:13:27;;;;;;;42.83;24.10;;;;;;;-144.15;0.00;65763.66;10335814;28;20488;-71
2020/12/20 01:18:26;;;;;;;46.72;24.63;;;;;;;-144.15;0.00;65763.66;10338313;28;20040;-72
2020/12/20 01:23:24;;;;;;;38.17;22.60;;;;;;;-144.15;0.00;65763.66;10338145;28;20436;-72
2020/12/20 01:28:22;;;;;;;37.58;20.05;;;;;;;-144.15;0.00;65763.66;10337678;28;20084;-70
2020/12/20 01:33:21;;;;;;;35.38;19.55;;;;;;;-144.15;0.00;65763.66;10356583;28;20060;-70
2020/12/20 01:38:40;;;;;;;32.00;18.52;;;;;;;-144.15;0.00;65763.66;10337685;28;20068;-71
2020/12/20 01:43:46;;;;;;;39.33;21.45;;;;;;;-144.15;0.00;65763.66;10337899;28;20492;-71
2020/12/20 01:48:47;;;;;;;33.80;18.80;;;;;;;-144.15;0.00;65763.66;10337310;28;20083;-72
2020/12/20 01:53:47;;;;;;;36.95;19.73;;;;;;;-144.15;0.00;65763.66;10336942;28;20523;-71
2020/12/20 01:58:47;;;;;;;60.13;26.67;;;;;;;-144.15;0.00;65763.66;10337529;28;20088;-70
2020/12/20 02:03:52;;;;;;;41.35;21.92;;;;;;;-144.15;0.00;65763.66;10337456;28;20118;-72
2020/12/20 02:09:02;;;;;;;37.88;20.52;;;;;;;-144.15;0.00;65763.66;10336686;28;20071;-71
2020/12/20 02:14:00;;;;;;;33.10;20.67;;;;;;;-144.15;0.00;65763.66;10337074;28;20072;-70
2020/12/20 02:19:09;;;;;;;30.30;17.90;;;;;;;-144.15;0.00;65763.66;10336780;28;20075;-72
2020/12/20 02:24:07;;;;;;;30.75;16.90;;;;;;;-144.15;0.00;65763.66;10336370;28;20083;-71
2020/12/20 02:29:14;;;;;;;31.40;19.25;;;;;;;-144.15;0.00;65763.66;10336387;28;20485;-71
2020/12/20 02:34:12;;;;;;;29.80;17.27;;;;;;;-144.15;0.00;65763.66;10336109;28;20079;-71
2020/12/20 02:39:13;;;;;;;24.77;15.73;;;;;;;-144.15;0.00;65763.66;10336287;28;20079;-71
2020/12/20 02:44:29;;;;;;;26.00;16.20;;;;;;;-144.15;0.00;65763.66;10335631;28;20318;-71
2020/12/20 02:49:33;;;;;;;25.33;16.05;;;;;;;-144.15;0.00;65763.66;10336148;28;20079;-71
2020/12/20 02:54:42;;;;;;;28.05;17.27;;;;;;;-144.15;0.00;65763.66;10336205;28;20113;-71
2020/12/20 02:59:47;;;;;;;32.00;17.00;;;;;;;-144.15;0.00;65763.66;10335223;28;20052;-71
2020/12/20 03:04:47;;;;;;;33.30;19.27;;;;;;;-144.15;0.00;65763.66;10336216;28;20066;-71
2020/12/20 03:09:50;;;;;;;36.45;21.40;;;;;;;-144.15;0.00;65763.66;10335527;28;20072;-71
2020/12/20 03:14:50;;;;;;;35.15;20.00;;;;;;;-144.15;0.00;65763.66;10334894;28;20084;-71
2020/12/20 03:19:49;;;;;;;68.50;38.05;;;;;;;-144.15;0.00;65763.66;10353633;28;20075;-70
2020/12/20 03:24:51;;;;;;;69.47;39.20;;;;;;;-144.15;0.00;65763.66;10343211;28;20076;-71
2020/12/20 03:30:20;;;;;;;54.30;28.02;;;;;;;-144.15;0.00;65763.66;10361024;28;20079;-72
2020/12/20 03:35:41;;;;;;;50.97;26.52;;;;;;;-144.15;0.00;65763.66;10342963;28;20072;-72
2020/12/20 03:40:42;;;;;;;46.33;25.27;;;;;;;-144.15;0.00;65763.66;10342618;28;20082;-72
2020/12/20 03:45:43;;;;;;;37.15;20.73;;;;;;;-144.15;0.00;65763.66;10342454;28;20044;-71
2020/12/20 03:50:43;;;;;;;30.65;17.02;;;;;;;-144.15;0.00;65763.66;10341829;28;20079;-72
2020/12/20 03:55:41;;;;;;;35.83;19.90;;;;;;;-144.15;0.00;65763.66;10341614;28;20428;-72
2020/12/20 04:00:40;;;;;;;32.50;20.83;;;;;;;-144.15;0.00;65763.66;10339134;28;20081;-72
2020/12/20 04:05:48;;;;;;;36.20;21.23;;;;;;;-144.15;0.00;65763.66;10341075;28;20554;-73
2020/12/20 04:10:49;;;;;;;32.55;18.98;;;;;;;-144.15;0.00;65763.66;10340807;28;20079;-72
2020/12/20 04:15:47;;;;;;;33.42;20.15;;;;;;;-144.15;0.00;65763.66;10340652;28;20071;-72
2020/12/20 04:20:45;;;;;;;32.42;18.73;;;;;;;-144.15;0.00;65763.66;10340661;28;20040;-73
2020/12/20 04:25:43;;;;;;;38.25;23.45;;;;;;;-144.15;0.00;65763.66;10341543;28;20076;-71
2020/12/20 04:30:55;;;;;;;32.92;18.35;;;;;;;-144.15;0.00;65763.66;10359014;28;20486;-72
2020/12/20 04:35:58;;;;;;;36.20;19.35;;;;;;;-144.15;0.00;65763.66;10338832;28;20633;-72
2020/12/20 04:40:56;;;;;;;33.35;19.25;;;;;;;-144.15;0.00;65763.66;10340359;28;20067;-72
2020/12/20 04:45:57;;;;;;;31.88;17.45;;;;;;;-144.15;0.00;65763.66;10339109;28;20503;-72
2020/12/20 04:51:09;;;;;;;34.33;18.00;;;;;;;-144.15;0.00;65763.66;10335061;28;20079;-73
2020/12/20 04:56:08;;;;;;;39.40;23.23;;;;;;;-144.15;0.00;65763.66;10334977;28;20075;-73
2020/12/20 05:01:19;;;;;;;34.80;19.77;;;;;;;-144.15;0.00;65763.66;10331982;28;20126;-73
2020/12/20 05:06:20;;;;;;;47.17;30.88;;;;;;;-144.15;0.00;65763.66;10337858;28;20474;-72
2020/12/20 05:11:32;;;;;;;35.33;21.35;;;;;;;-144.15;0.00;65763.66;10329482;28;20080;-72
2020/12/20 05:16:36;;;;;;;51.33;28.55;;;;;;;-144.15;0.00;65763.66;10333908;28;20056;-73
2020/12/20 05:21:39;;;;;;;43.55;23.52;;;;;;;-144.15;0.00;65763.66;10334585;28;20560;-72
2020/12/20 05:26:37;;;;;;;38.75;20.85;;;;;;;-144.15;0.00;65763.66;10355452;28;20086;-72
2020/12/20 05:31:38;;;;;;;43.05;22.67;;;;;;;-144.15;0.00;65763.66;10331730;28;20072;-70
2020/12/20 05:37:07;;;;;;;41.35;21.30;;;;;;;-144.15;0.00;65763.66;10330503;28;20092;-71
2020/12/20 05:42:25;;;;;;;;;;;;;;;-144.15;0.00;65763.66;10350155;28;20088;-71
2020/12/20 05:47:25;;;;;;;102.90;39.28;;;;;;;-144.15;0.00;65763.66;10337556;28;20392;-71
2020/12/20 05:52:25;;;;;;;76.40;38.13;;;;;;;-144.15;0.00;65763.66;10334864;28;20076;-72
2020/12/20 05:57:24;;;;;;;86.80;42.92;;;;;;;-144.15;0.00;65763.66;10355133;28;20503;-72
2020/12/20 06:02:22;;;;;;;66.38;34.25;;;;;;;-144.15;0.00;65763.66;10349779;28;20068;-72
2020/12/20 06:07:25;;;;;;;80.38;36.10;;;;;;;-144.15;0.00;65763.66;10350400;28;20466;-72
2020/12/20 06:12:24;;;;;;;67.45;29.50;;;;;;;-144.15;0.00;65763.66;10332559;28;20103;-73
2020/12/20 06:17:23;;;;;;;55.08;28.45;;;;;;;-144.15;0.00;65763.66;10350451;28;20072;-72
2020/12/20 06:22:24;;;;;;;60.53;27.90;;;;;;;-144.15;0.00;65763.66;10347586;28;20068;-73
2020/12/20 06:27:23;;;;;;;83.32;37.33;;;;;;;-144.15;0.00;65763.66;10348108;28;20072;-72
2020/12/20 06:32:26;;;;;;;55.75;31.35;;;;;;;-144.15;0.00;65763.66;10346327;28;20067;-72
2020/12/20 06:37:25;;;;;;;89.65;50.83;;;;;;;-144.15;0.00;65763.66;10352400;28;20071;-73
2020/12/20 06:42:39;;;;;;;76.38;43.13;;;;;;;-144.15;0.00;65763.66;10345822;28;20068;-73
2020/12/20 06:47:41;;;;;;;60.65;37.08;;;;;;;-144.15;0.00;65763.66;10333954;28;20067;-65
2020/12/20 06:52:47;;;;;;;90.80;51.53;;;;;;;-144.15;0.00;65763.66;10346259;28;20140;-66
2020/12/20 06:58:07;;;;;;;110.82;71.75;;;;;;;-144.15;0.00;65763.66;10347954;28;20110;-65
2020/12/20 07:03:05;;;;;;;61.30;37.80;;;;;;;-144.15;0.00;65763.66;10346663;28;20075;-64
2020/12/20 07:08:08;;;;;;;35.85;21.20;;;;;;;-144.15;0.00;65763.66;10345189;28;20516;-64
2020/12/20 07:13:09;;;;;;;53.85;30.90;;;;;;;-144.15;0.00;65763.66;10353255;28;20080;-65
2020/12/20 07:18:06;;;;;;;48.55;27.23;;;;;;;-144.15;0.00;65763.66;10358668;28;20090;-65
2020/12/20 07:23:04;;;;;;;50.85;29.90;;;;;;;-144.15;0.00;65763.66;10361506;28;20064;-65
2020/12/20 07:28:05;;;;;;;92.55;56.30;;;;;;;-144.15;0.00;65763.66;10361428;28;20067;-66
2020/12/20 07:33:03;;;;;;;40.33;21.63;;;;;;;-144.15;0.00;65763.66;10360685;28;20080;-66
2020/12/20 07:38:01;;;;;;;53.00;29.67;;;;;;;-144.15;0.00;65763.66;10360883;28;20466;-66
2020/12/20 07:43:00;;;;;;;48.03;29.00;;;;;;;-144.15;0.00;65763.66;10360736;28;20070;-65
2020/12/20 07:47:59;;;;;;;76.90;47.05;;;;;;;-144.15;0.00;65763.66;10340764;28;20047;-66
2020/12/20 07:52:57;;;;;;;113.93;59.92;;;;;;;-144.15;0.00;65763.66;10358197;28;20075;-66
2020/12/20 07:57:55;;;;;;;116.82;57.88;;;;;;;-144.15;0.00;65763.66;10339962;28;20067;-65
2020/12/20 08:02:53;;;;;;;102.70;51.95;;;;;;;-144.15;0.00;65763.66;10354755;28;20063;-65
2020/12/20 08:07:54;;;;;;;93.28;58.42;;;;;;;-144.15;0.00;65763.66;10359585;28;20457;-66
2020/12/20 08:12:52;;;;;;;74.13;45.13;;;;;;;-144.15;0.00;65763.66;10357337;28;20086;-72
2020/12/20 08:17:50;;;;;;;137.98;59.22;;;;;;;-144.15;0.00;65763.66;10353667;28;20553;-72
2020/12/20 08:22:48;;;;;;;58.85;37.45;;;;;;;-144.15;0.00;65763.66;10359053;28;20076;-73
2020/12/20 08:27:56;;;;;;;87.63;46.88;;;;;;;-144.15;0.00;65763.66;10353348;28;20071;-72
2020/12/20 08:32:54;;;;;;;98.15;53.53;;;;;;;-144.15;0.00;65763.66;10358122;28;20523;-70
2020/12/20 08:37:53;;;;;;;50.05;32.38;;;;;;;-144.15;0.00;65763.66;10355539;28;20067;-71
2020/12/20 08:42:58;;;;;;;49.67;32.45;;;;;;;-144.15;0.00;65763.66;10355881;28;20429;-71
2020/12/20 08:48:01;;;;;;;42.97;27.92;;;;;;;-144.15;0.00;65763.66;10352863;28;20063;-72
2020/12/20 08:53:00;;;;;;;39.10;24.60;;;;;;;-144.15;0.00;65763.66;10351874;28;20090;-70
2020/12/20 08:58:04;;;;;;;55.65;34.97;;;;;;;-144.15;0.00;65763.66;10351962;28;20063;-72
2020/12/20 09:03:03;;;;;;;103.45;61.90;;;;;;;-144.15;0.00;65763.66;10351739;28;20048;-73
2020/12/20 09:08:02;;;;;;;59.78;33.20;;;;;;;-144.15;0.00;65763.66;10350710;28;20119;-71
2020/12/20 09:13:01;;;;;;;59.05;38.45;;;;;;;-144.15;0.00;65763.66;10351068;28;20484;-72
2020/12/20 09:18:02;;;;;;;46.88;27.80;;;;;;;-144.15;0.00;65763.66;10353401;28;20091;-71
2020/12/20 09:23:00;;;;;;;62.47;39.33;;;;;;;-144.15;0.00;65763.66;10357101;28;20075;-73
2020/12/20 09:28:00;;;;;;;57.10;38.25;;;;;;;-144.15;0.00;65763.66;10356235;28;20063;-73
2020/12/20 09:32:58;;;;;;;62.85;40.08;;;;;;;-144.15;0.00;65763.66;10354240;28;20074;-72
2020/12/20 09:37:56;;;;;;;192.98;111.13;;;;;;;-144.15;0.00;65763.66;10355918;28;20079;-71
2020/12/20 09:42:54;;;;;;;289.80;152.32;;;;;;;-144.15;0.00;65763.66;10355817;28;20071;-71
2020/12/20 09:47:52;;;;;;;64.40;37.53;;;;;;;-144.15;0.00;65763.66;10351565;28;20072;-73
2020/12/20 09:52:49;;;;;;;87.97;50.65;;;;;;;-144.15;0.00;65763.66;10344663;28;20075;-72
2020/12/20 09:57:48;;;;;;;80.25;57.08;;;;;;;-144.15;0.00;65763.66;10338782;28;20507;-72
2020/12/20 10:02:46;;;;;;;67.15;41.33;;;;;;;-144.15;0.00;65763.66;10348211;28;20072;-73
2020/12/20 10:07:44;;;;;;;72.38;49.15;;;;;;;-144.15;0.00;65763.66;10341812;28;20067;-73
2020/12/20 10:12:41;;;;;;;63.38;42.42;;;;;;;-144.15;0.00;65763.66;10328019;28;20151;-73
2020/12/20 10:17:40;;;;;;;91.43;61.15;;;;;;;-144.15;0.00;65763.66;10332725;28;20448;-72
2020/12/20 10:22:38;;;;;;;56.35;33.13;;;;;;;-144.15;0.00;65763.66;10329943;28;20128;-72
2020/12/20 10:27:47;;;;;;;125.30;72.55;;;;;;;-144.15;0.00;65763.66;10333685;28;20067;-71
2020/12/20 10:32:47;;;;;;;67.00;39.13;;;;;;;-144.15;0.00;65763.66;10350326;28;20429;-73
2020/12/20 10:37:45;;;;;;;167.07;80.57;;;;;;;-144.15;0.00;65763.66;10350441;28;20071;-72
2020/12/20 10:42:42;;;;;;;129.02;71.63;;;;;;;-144.15;0.00;65763.66;10354832;28;20064;-73
2020/12/20 10:47:41;;;;;;;73.28;45.47;;;;;;;-144.15;0.00;65763.66;10355156;28;20056;-71
2020/12/20 10:52:39;;;;;;;177.15;87.43;;;;;;;-144.15;0.00;65763.66;10355179;28;20079;-72
2020/12/20 10:57:37;;;;;;;95.00;51.78;;;;;;;-144.15;0.00;65763.66;10347683;28;20068;-74
2020/12/20 11:02:35;;;;;;;174.35;93.03;;;;;;;-144.15;0.00;65763.66;10351709;28;20333;-69
2020/12/20 11:07:32;;;;;;;50.85;31.23;;;;;;;-144.15;0.00;65763.66;10353977;28;20068;-71
2020/12/20 11:12:31;;;;;;;165.20;99.65;;;;;;;-144.15;0.00;65763.66;10352113;28;20090;-73
2020/12/20 11:17:29;;;;;;;92.63;57.78;;;;;;;-144.15;0.00;65763.66;10339026;28;20091;-72
2020/12/20 11:22:26;;;;;;;36.67;24.98;;;;;;;-144.15;0.00;65763.66;10343236;28;20074;-71
2020/12/20 11:27:27;;;;;;;47.75;30.30;;;;;;;-144.15;0.00;65763.66;10351419;28;20060;-71
2020/12/20 11:32:25;;;;;;;122.15;90.70;;;;;;;-144.15;0.00;65763.66;10347985;28;20092;-72
2020/12/20 11:37:26;;;;;;;88.35;61.47;;;;;;;-144.15;0.00;65763.66;10344933;28;20072;-72
2020/12/20 11:42:24;;;;;;;70.35;42.55;;;;;;;-144.15;0.00;65763.66;10346192;28;20523;-72
2020/12/20 11:47:22;;;;;;;80.88;46.08;;;;;;;-144.15;0.00;65763.66;10352839;28;20531;-70
2020/12/20 11:52:20;;;;;;;68.30;38.92;;;;;;;-144.15;0.00;65763.66;10347643;28;20080;-72
2020/12/20 11:57:19;;;;;;;49.63;34.10;;;;;;;-144.15;0.00;65763.66;10351377;28;20481;-72
2020/12/20 12:02:17;;;;;;;87.85;62.80;;;;;;;-144.15;0.00;65763.66;10357124;28;20062;-70
2020/12/20 12:07:15;;;;;;;109.82;67.32;;;;;;;-144.15;0.00;65763.66;10357201;28;20094;-71
2020/12/20 12:12:14;;;;;;;77.45;48.20;;;;;;;-144.15;0.00;65763.66;10356546;28;20087;-71
2020/12/20 12:17:12;;;;;;;51.75;33.95;;;;;;;-144.15;0.00;65763.66;10355619;28;20063;-71
2020/12/20 12:22:11;;;;;;;61.08;41.42;;;;;;;-144.15;0.00;65763.66;10356301;28;20067;-71
2020/12/20 12:27:08;;;;;;;40.38;25.88;;;;;;;-144.15;0.00;65763.66;10355691;28;20070;-71
2020/12/20 12:32:07;;;;;;;45.88;29.65;;;;;;;-144.15;0.00;65763.66;10355867;28;20512;-73
2020/12/20 12:37:05;;;;;;;41.50;29.25;;;;;;;-144.15;0.00;65763.66;10349895;28;20060;-70
2020/12/20 12:42:04;;;;;;;33.65;24.17;;;;;;;-144.15;0.00;65763.66;10357763;28;20067;-73
2020/12/20 12:47:02;;;;;;;43.92;31.45;;;;;;;-144.15;0.00;65763.66;10339818;28;20203;-72
2020/12/20 12:52:01;;;;;;;30.42;22.90;;;;;;;-144.15;0.00;65763.66;10354055;28;20083;-70
2020/12/20 12:56:58;;;;;;;43.25;29.20;;;;;;;-144.15;0.00;65763.66;10351538;28;20067;-70
2020/12/20 13:01:57;;;;;;;32.92;23.88;;;;;;;-144.15;0.00;65763.66;10348312;28;20090;-72
2020/12/20 13:06:55;;;;;;;34.65;23.35;;;;;;;-144.15;0.00;65763.66;10356062;28;20067;-71
2020/12/20 13:11:54;;;;;;;34.28;25.38;;;;;;;-144.15;0.00;65763.66;10356599;28;20098;-71
2020/12/20 13:16:52;;;;;;;56.88;33.85;;;;;;;-144.15;0.00;65763.66;10357041;28;20496;-72
2020/12/20 13:21:50;;;;;;;53.88;37.30;;;;;;;-144.15;0.00;65763.66;10352541;28;20095;-73
2020/12/20 13:26:48;;;;;;;34.40;21.25;;;;;;;-144.15;0.00;65763.66;10356254;28;20064;-71
2020/12/20 13:31:46;;;;;;;66.97;38.30;;;;;;;-144.15;0.00;65763.66;10356351;28;20098;-72
2020/12/20 13:36:44;;;;;;;41.78;29.13;;;;;;;-144.15;0.00;65763.66;10355477;28;20075;-72
2020/12/20 13:41:42;;;;;;;49.42;34.72;;;;;;;-144.15;0.00;65763.66;10354531;28;20074;-71
2020/12/20 13:46:40;;;;;;;40.75;29.33;;;;;;;-144.15;0.00;65763.66;10355211;28;20062;-71
2020/12/20 13:51:38;;;;;;;56.38;36.85;;;;;;;-144.15;0.00;65763.66;10354858;28;20079;-72
2020/12/20 13:56:40;;;;;;;63.42;42.97;;;;;;;-144.15;0.00;65763.66;10335581;28;20068;-71
2020/12/20 14:01:38;;;;;;;65.93;41.78;;;;;;;-144.15;0.00;65763.66;10349068;28;20516;-69
2020/12/20 14:06:43;;;;;;;61.08;42.85;;;;;;;-144.15;0.00;65763.66;10348635;28;20496;-71
2020/12/20 14:11:41;;;;;;;50.38;34.67;;;;;;;-144.15;0.00;65763.66;10349229;28;20520;-71
2020/12/20 14:16:38;;;;;;;49.08;30.73;;;;;;;-144.15;0.00;65763.66;10353001;28;20068;-71
2020/12/20 14:21:36;;;;;;;52.85;30.33;;;;;;;-144.15;0.00;65763.66;10348441;28;20567;-72
2020/12/20 14:26:35;;;;;;;60.60;33.65;;;;;;;-144.15;0.00;65763.66;10352677;28;20552;-71
2020/12/20 14:31:33;;;;;;;111.93;55.53;;;;;;;-144.15;0.00;65763.66;10352719;28;20075;-70
2020/12/20 14:36:31;;;;;;;109.10;54.33;;;;;;;-144.15;0.00;65763.66;10352292;28;20073;-71
2020/12/20 14:41:29;;;;;;;121.63;61.15;;;;;;;-144.15;0.00;65763.66;10352292;28;20089;-71
2020/12/20 14:46:28;;;;;;;90.03;51.25;;;;;;;-144.15;0.00;65763.66;10351834;28;20536;-73
2020/12/20 14:51:26;;;;;;;128.65;78.68;;;;;;;-144.15;0.00;65763.66;10352000;28;20510;-71
2020/12/20 14:56:24;;;;;;;119.82;72.65;;;;;;;-144.15;0.00;65763.66;10351553;28;20086;-72
2020/12/20 15:01:21;;;;;;;87.25;56.55;;;;;;;-144.15;0.00;65763.66;10347142;28;20984;-73
2020/12/20 15:06:21;;;;;;;145.55;86.32;;;;;;;-144.15;0.00;65763.66;10351234;28;20086;-71
2020/12/20 15:11:22;;;;;;;100.05;61.60;;;;;;;-144.15;0.00;65763.66;10351643;28;20088;-72
2020/12/20 15:16:19;;;;;;;68.18;46.58;;;;;;;-144.15;0.00;65763.66;10347999;28;20598;-71
2020/12/20 15:21:17;;;;;;;87.40;58.88;;;;;;;-144.15;0.00;65763.66;10360708;28;20067;-72
2020/12/20 15:26:18;;;;;;;94.78;63.75;;;;;;;-144.15;0.00;65763.66;10361781;28;20055;-74
2020/12/20 15:31:16;;;;;;;79.28;54.15;;;;;;;-144.15;0.00;65763.66;10357181;28;20082;-73
2020/12/20 15:36:16;;;;;;;73.55;49.78;;;;;;;-144.15;0.00;65763.66;10353189;28;20079;-70
2020/12/20 15:41:15;;;;;;;57.92;38.97;;;;;;;-144.15;0.00;65763.66;10351705;28;20287;-71
2020/12/20 15:46:15;;;;;;;75.60;49.63;;;;;;;-144.15;0.00;65763.66;10360420;28;20075;-71
2020/12/20 15:51:18;;;;;;;82.03;50.85;;;;;;;-144.15;0.00;65763.66;10357928;28;20060;-72
2020/12/20 15:56:16;;;;;;;90.38;56.10;;;;;;;-144.15;0.00;65763.66;10360140;28;20079;-71
2020/12/20 16:01:15;;;;;;;100.07;61.30;;;;;;;-144.15;0.00;65763.66;10360607;28;20086;-71
2020/12/20 16:06:13;;;;;;;80.50;48.75;;;;;;;-144.15;0.00;65763.66;10359426;28;20067;-71
2020/12/20 16:11:10;;;;;;;72.57;43.05;;;;;;;-144.15;0.00;65763.66;10354556;28;20130;-71
2020/12/20 16:16:10;;;;;;;112.82;63.05;;;;;;;-144.15;0.00;65763.66;10359175;28;20066;-72
2020/12/20 16:21:09;;;;;;;124.75;75.15;;;;;;;-144.15;0.00;65763.66;10358147;28;20522;-71
2020/12/20 16:26:07;;;;;;;129.30;73.53;;;;;;;-144.15;0.00;65763.66;10359533;28;20072;-70
2020/12/20 16:31:40;;;;;;;89.53;56.00;;;;;;;-144.15;0.00;65763.66;10356758;28;20074;-70
2020/12/20 16:36:42;;;;;;;80.25;49.03;;;;;;;-144.15;0.00;65763.66;10354619;28;20068;-71
2020/12/20 16:41:41;;;;;;;89.25;48.95;;;;;;;-144.15;0.00;65763.66;10358835;28;20080;-72
2020/12/20 16:46:39;;;;;;;73.78;41.50;;;;;;;-144.15;0.00;65763.66;10359154;28;20067;-72
2020/12/20 16:51:37;;;;;;;78.38;45.05;;;;;;;-144.15;0.00;65763.66;10348971;28;20547;-70
2020/12/20 16:56:37;;;;;;;110.63;55.15;;;;;;;-144.15;0.00;65763.66;10333603;28;20064;-70
2020/12/20 17:01:40;;;;;;;104.53;51.22;;;;;;;-144.15;0.00;65763.66;10343931;28;20090;-69
2020/12/20 17:06:58;;;;;;;96.43;51.72;;;;;;;-144.15;0.00;65763.66;10349589;28;20071;-70
2020/12/20 17:12:04;;;;;;;94.15;52.08;;;;;;;-144.15;0.00;65763.66;10348215;28;20091;-69
2020/12/20 17:17:07;;;;;;;91.00;52.30;;;;;;;-144.15;0.00;65763.66;10353122;28;20323;-70
2020/12/20 17:22:09;;;;;;;81.43;48.72;;;;;;;-144.15;0.00;65763.66;10356816;28;20086;-70
2020/12/20 17:27:13;;;;;;;87.18;50.05;;;;;;;-144.15;0.00;65763.66;10342778;28;20071;-70
2020/12/20 17:32:10;;;;;;;111.72;60.67;;;;;;;-144.15;0.00;65763.66;10353214;28;20174;-69
2020/12/20 17:37:13;;;;;;;92.82;53.50;;;;;;;-144.15;0.00;65763.66;10351000;28;20504;-70
2020/12/20 17:42:17;;;;;;;78.75;46.25;;;;;;;-144.15;0.00;65763.66;10355799;28;20599;-69
2020/12/20 17:47:19;;;;;;;83.78;49.58;;;;;;;-144.15;0.00;65763.66;10354029;28;20072;-69
2020/12/20 17:52:22;;;;;;;64.78;36.60;;;;;;;-144.15;0.00;65763.66;10355552;28;20068;-70
2020/12/20 17:57:21;;;;;;;62.58;36.33;;;;;;;-144.15;0.00;65763.66;10355205;28;20495;-70
2020/12/20 18:02:19;;;;;;;63.78;37.80;;;;;;;-144.15;0.00;65763.66;10355410;28;20056;-72
2020/12/20 18:07:18;;;;;;;66.18;42.47;;;;;;;-144.15;0.00;65763.66;10355189;28;20061;-70
2020/12/20 18:12:19;;;;;;;71.35;40.45;;;;;;;-144.15;0.00;65763.66;10353737;28;20456;-70
2020/12/20 18:17:18;;;;;;;85.60;47.30;;;;;;;-144.15;0.00;65763.66;10354920;28;20518;-71
2020/12/20 18:22:16;;;;;;;110.05;60.20;;;;;;;-144.15;0.00;65763.66;10352792;28;20063;-70
2020/12/20 18:27:14;;;;;;;84.75;47.67;;;;;;;-144.15;0.00;65763.66;10354114;28;20515;-71
2020/12/20 18:32:19;;;;;;;85.18;46.53;;;;;;;-144.15;0.00;65763.66;10355035;28;20087;-70
2020/12/20 18:37:18;;;;;;;86.63;49.78;;;;;;;-144.15;0.00;65763.66;10354268;28;20071;-70
2020/12/20 18:42:17;;;;;;;79.43;46.58;;;;;;;-144.15;0.00;65763.66;10352885;28;20282;-70
2020/12/20 18:47:17;;;;;;;68.40;38.47;;;;;;;-144.15;0.00;65763.66;10339768;28;20067;-70
2020/12/20 18:52:16;;;;;;;86.68;46.25;;;;;;;-144.15;0.00;65763.66;10348760;28;20079;-70
2020/12/20 18:57:14;;;;;;;87.82;49.53;;;;;;;-144.15;0.00;65763.66;10358301;28;20066;-71
2020/12/20 19:02:12;;;;;;;101.10;56.08;;;;;;;-144.15;0.00;65763.66;10344856;28;20477;-69
2020/12/20 19:07:11;;;;;;;97.60;52.95;;;;;;;-144.15;0.00;65763.66;10351710;28;20067;-70
2020/12/20 19:12:09;;;;;;;72.00;40.28;;;;;;;-144.15;0.00;65763.66;10354945;28;20072;-71
2020/12/20 19:17:08;;;;;;;114.05;54.08;;;;;;;-144.15;0.00;65763.66;10351404;28;20059;-70
2020/12/20 19:22:07;;;;;;;86.95;48.10;;;;;;;-144.15;0.00;65763.66;10342833;28;20060;-71
2020/12/20 19:27:06;;;;;;;104.63;58.65;;;;;;;-144.15;0.00;65763.66;10331417;28;20454;-70
2020/12/20 19:32:05;;;;;;;81.97;46.17;;;;;;;-144.15;0.00;65763.66;10332948;28;20098;-70
2020/12/20 19:37:03;;;;;;;73.18;50.75;;;;;;;-144.15;0.00;65763.66;10355842;28;20453;-72
2020/12/20 19:42:01;;;;;;;67.18;37.85;;;;;;;-144.15;0.00;65763.66;10350023;28;20071;-71
2020/12/20 19:47:01;;;;;;;85.95;43.63;;;;;;;-144.15;0.00;65763.66;10349562;28;20063;-70
2020/12/20 19:52:00;;;;;;;66.10;37.83;;;;;;;-144.15;0.00;65763.66;10355444;28;20070;-70
2020/12/20 19:56:58;;;;;;;84.45;46.53;;;;;;;-144.15;0.00;65763.66;10354785;28;20471;-69
2020/12/20 20:01:56;;;;;;;86.97;43.95;;;;;;;-144.15;0.00;65763.66;10359681;28;20495;-70
2020/12/20 20:06:54;;;;;;;71.00;42.67;;;;;;;-144.15;0.00;65763.66;10360036;28;20283;-71
2020/12/20 20:11:52;;;;;;;65.43;41.40;;;;;;;-144.15;0.00;65763.66;10360279;28;20075;-71
2020/12/20 20:16:50;;;;;;;70.40;36.35;;;;;;;-144.15;0.00;65763.66;10360442;28;20067;-72
2020/12/20 20:21:48;;;;;;;70.15;38.67;;;;;;;-144.15;0.00;65763.66;10360351;28;20067;-70
2020/12/20 20:26:46;;;;;;;84.72;44.80;;;;;;;-144.15;0.00;65763.66;10360154;28;20052;-71
2020/12/20 20:31:44;;;;;;;66.80;39.30;;;;;;;-144.15;0.00;65763.66;10355115;28;20044;-71
2020/12/20 20:36:48;;;;;;;46.63;28.80;;;;;;;-144.15;0.00;65763.66;10359794;28;20071;-69
2020/12/20 20:41:45;;;;;;;57.35;36.55;;;;;;;-144.15;0.00;65763.66;10354960;28;20067;-72
2020/12/20 20:46:48;;;;;;;70.32;45.22;;;;;;;-144.15;0.00;65763.66;10354880;28;20060;-71
2020/12/20 20:51:46;;;;;;;67.97;40.38;;;;;;;-144.15;0.00;65763.66;10354499;28;20078;-71
2020/12/20 20:56:44;;;;;;;63.05;41.65;;;;;;;-144.15;0.00;65763.66;10358714;28;20063;-70
2020/12/20 21:01:42;;;;;;;67.85;35.28;;;;;;;-144.15;0.00;65763.66;10358739;28;20063;-71
2020/12/20 21:06:41;;;;;;;60.25;32.97;;;;;;;-144.15;0.00;65763.66;10357765;28;20072;-70
2020/12/20 21:11:39;;;;;;;71.15;42.88;;;;;;;-144.15;0.00;65763.66;10357160;28;20052;-70
2020/12/20 21:16:37;;;;;;;73.80;45.10;;;;;;;-144.15;0.00;65763.66;10356953;28;20483;-71
2020/12/20 21:21:34;;;;;;;69.15;39.92;;;;;;;-144.15;0.00;65763.66;10358003;28;20059;-71
2020/12/20 21:26:33;;;;;;;62.05;33.85;;;;;;;-144.15;0.00;65763.66;10356001;28;20508;-71
2020/12/20 21:31:31;;;;;;;59.40;34.80;;;;;;;-144.15;0.00;65763.66;10352494;28;20461;-71
2020/12/20 21:36:29;;;;;;;69.55;39.83;;;;;;;-144.15;0.00;65763.66;10357305;28;20080;-71
2020/12/20 21:41:28;;;;;;;54.45;35.45;;;;;;;-144.15;0.00;65763.66;10356024;28;20071;-72
2020/12/20 21:46:27;;;;;;;46.20;27.77;;;;;;;-144.15;0.00;65763.66;10357056;28;20071;-71
2020/12/20 21:51:25;;;;;;;56.08;33.17;;;;;;;-144.15;0.00;65763.66;10356114;28;20090;-72
2020/12/20 21:56:22;;;;;;;58.47;33.53;;;;;;;-144.15;0.00;65763.66;10354818;28;20079;-71
2020/12/20 22:01:20;;;;;;;56.10;31.92;;;;;;;-144.15;0.00;65763.66;10356018;28;20452;-69
2020/12/20 22:06:20;;;;;;;49.35;28.13;;;;;;;-144.15;0.00;65763.66;10337503;28;20083;-72
2020/12/20 22:11:17;;;;;;;50.88;30.05;;;;;;;-144.15;0.00;65763.66;10351711;28;20055;-71
2020/12/20 22:16:15;;;;;;;51.53;28.90;;;;;;;-144.15;0.00;65763.66;10355929;28;20071;-71
2020/12/20 22:21:14;;;;;;;79.82;46.30;;;;;;;-144.15;0.00;65763.66;10356055;28;20461;-70
2020/12/20 22:26:13;;;;;;;52.40;29.70;;;;;;;-144.15;0.00;65763.66;10355452;28;20062;-70
2020/12/20 22:31:13;;;;;;;65.22;37.20;;;;;;;-144.15;0.00;65763.66;10349113;28;20078;-70